Nearby METAR Reports

 

KIMT - Iron Mountain, Michigan, USA
Distance from station: 0 29mi, 47km
Updated: Sat, 23-Jan-2021 4:54pm CST
Clear
Clear
 Wind from WNW
Wind: WNW 5 mph , 7 km/h
Temperature: 18°F , -8°C
Wind Chill: 11°F , -12°C
Dew Point: 7°F , -14°C
Humidity: 62%
Barometer: 30.19 inHg , 1022.4 hPa
Clouds: Clear
Visibility: 10 miles , 16 km
2021/01/23 22:54 KIMT 232254Z AUTO 30004KT 10SM CLR M08/M14 A3019 RMK AO2 SLP251 T10781139 $
KMNM - Menominee, Michigan, USA
Distance from station: SE 31mi, 51km
Updated: Thu, 21-Jan-2021 7:56am CST
NOT Current
Clear
Clear
 Wind from W
Wind: W 7 mph , 11 km/h
Temperature: 30°F , -1°C
Wind Chill: 23°F , -5°C
Dew Point: 25°F , -4°C
Humidity: 80%
Barometer: 29.50 inHg , 999 hPa
Clouds: Clear
Visibility: 10 miles , 16 km
2021/01/21 13:56 KMNM 211356Z AUTO 26006KT 10SM CLR M01/M04 A2950 RMK AO2 SLP994 T10061044 FZRANO $
 
KOCQ - Oconto, Wisconsin, USA
Distance from station: SSE 38mi, 61km
Updated: Sat, 23-Jan-2021 4:55pm CST
Clear
Clear
 Wind from calm
Wind: Calm
Temperature: 19°F , -7°C
Dew Point: 7°F , -14°C
Humidity: 58%
Barometer: 30.27 inHg , 1025.1 hPa
Clouds: Clear
Visibility: 10 miles , 16 km
2021/01/23 22:55 KOCQ 232255Z AUTO 00000KT 10SM CLR M07/M14 A3027 RMK AO1 T10711145
KEZS - Shawano Muni, Wisconsin, USA
Distance from station: SSW 48mi, 77km
Updated: Sat, 23-Jan-2021 4:55pm CST
Clear
Clear
 Wind from calm
Wind: Calm
Temperature: 23°F , -5°C
Dew Point: 7°F , -14°C
Humidity: 50%
Barometer: 30.24 inHg , 1024 hPa
Clouds: Clear
Visibility: 10 miles , 16 km
2021/01/23 22:55 KEZS 232255Z AUTO 00000KT 10SM CLR M05/M14 A3024 RMK AO2 T10531145
 
KAIG - Antigo/Langlade, Wisconsin, USA
Distance from station: WSW 51mi, 82km
Updated: Sat, 23-Jan-2021 4:55pm CST
Partly cloudy
Partly cloudy
 Wind from calm
Wind: Calm
Temperature: 12°F , -11°C
Dew Point: 5°F , -15°C
Humidity: 73%
Barometer: 30.17 inHg , 1021.7 hPa
Clouds: Partly cloudy
Visibility: 10 miles , 16 km
Cloud details: Partly cloudy 10000 ft
Partly cloudy 11000 ft
2021/01/23 22:55 KAIG 232255Z AUTO 00000KT 10SM SCT100 SCT110 M11/M15 A3017 RMK AO2 T11061151
KSUE - Sturgeon Bay, Wisconsin, USA
Distance from station: SE 51mi, 82km
Updated: Sat, 23-Jan-2021 4:56pm CST
Clear
Clear
 Wind from SW
Wind: SW 3 mph , 6 km/h
Temperature: 19°F , -7°C
Dew Point: 9°F , -13°C
Humidity: 63%
Barometer: 30.28 inHg , 1025.4 hPa
Clouds: Clear
Visibility: 10 miles , 16 km
2021/01/23 22:56 KSUE 232256Z AUTO 23003KT 10SM CLR M07/M13 A3028 RMK AO2 SLP266 T10721133 FZRANO
 
KESC - Escanaba, Michigan, USA
Distance from station: ENE 56mi, 90km
Updated: Sat, 23-Jan-2021 4:56pm CST
Clear
Clear
 Wind from S
Wind: S 5 mph , 7 km/h
Temperature: 21°F , -6°C
Wind Chill: 14°F , -10°C
Dew Point: 10°F , -12°C
Humidity: 63%
Barometer: 30.26 inHg , 1024.7 hPa
Clouds: Clear
Visibility: 10 miles , 16 km
2021/01/23 22:56 KESC 232256Z AUTO 18004KT 10SM CLR M06/M12 A3026 RMK AO2 SLP266 T10611117 FZRANO
KCLI - Clintonville, Wisconsin, USA
Distance from station: SSW 62mi, 99km
Updated: Sat, 23-Jan-2021 4:55pm CST
Mostly cloudy
Mostly cloudy
 Wind from WSW
Wind: WSW 3 mph , 6 km/h
Temperature: 21°F , -6°C
Dew Point: 3°F , -16°C
Humidity: 45%
Barometer: 30.25 inHg , 1024.4 hPa
Clouds: Mostly cloudy
Visibility: 10 miles , 16 km
Cloud details: Mostly cloudy 11000 ft
2021/01/23 22:55 KCLI 232255Z AUTO 24003KT 10SM BKN110 M06/M16 A3025 RMK AO2 T10631164
 
KGRB - Ashwaubenon, Wisconsin, USA
Distance from station: S 63mi, 102km
Updated: Sat, 23-Jan-2021 4:53pm CST
Partly cloudy
Partly cloudy
 Wind from S
Wind: S 6 mph , 9 km/h
Temperature: 19°F , -7°C
Wind Chill: 11°F , -12°C
Dew Point: 5°F , -15°C
Humidity: 53%
Barometer: 30.27 inHg , 1025.1 hPa
Clouds: Partly cloudy
Visibility: 10 miles , 16 km
Cloud details: Partly cloudy 12000 ft
2021/01/23 22:53 KGRB 232253Z 18005KT 10SM SCT120 M07/M15 A3027 RMK AO2 SLP264 T10671150
KEGV - Eagle River, Wisconsin, USA
Distance from station: NW 66mi, 107km
Updated: Sat, 23-Jan-2021 4:55pm CST
Partly cloudy
Partly cloudy
 Wind from calm
Wind: Calm
Temperature: 14°F , -10°C
Dew Point: 7°F , -14°C
Humidity: 73%
Barometer: 30.14 inHg , 1020.7 hPa
Clouds: Partly cloudy
Visibility: 10 miles , 16 km
Cloud details: Partly cloudy 2700 ft
2021/01/23 22:55 KEGV 232255Z AUTO 00000KT 10SM SCT027 M10/M14 A3014 RMK AO2 T11001142
 
KRHI - Rhinelander, Wisconsin, USA
Distance from station: WNW 68mi, 109km
Updated: Sat, 23-Jan-2021 4:53pm CST
Overcast
Overcast
 Wind from S
Wind: S 3 mph , 6 km/h
Temperature: 18°F , -8°C
Dew Point: 5°F , -15°C
Humidity: 58%
Barometer: 30.14 inHg , 1020.7 hPa
Clouds: Overcast
Visibility: 10 miles , 16 km
Cloud details: Partly cloudy 2400 ft
Mostly cloudy 10000 ft
Overcast 12000 ft
2021/01/23 22:53 KRHI 232253Z AUTO 17003KT 10SM SCT024 BKN100 OVC120 M08/M15 A3014 RMK AO2 SLP246 T10831150
KLNL - Land O Lakes, Wisconsin, USA
Distance from station: NW 74mi, 119km
Updated: Sat, 23-Jan-2021 4:55pm CST
Mostly cloudy
Mostly cloudy
 Wind from calm
Wind: Calm
Temperature: 14°F , -10°C
Dew Point: 7°F , -14°C
Humidity: 73%
Barometer: 30.16 inHg , 1021.3 hPa
Clouds: Mostly cloudy
Visibility: 10 miles , 16 km
Cloud details: Mostly cloudy 2700 ft
2021/01/23 22:55 KLNL 232255Z AUTO 00000KT 10SM BKN027 M10/M14 A3016 RMK AO2 T11001136
 
KSAW - Gwinn/Sawyer, Michigan, USA
Distance from station: NNE 74mi, 120km
Updated: Sat, 23-Jan-2021 4:47pm CST
Partly cloudy
Partly cloudy
 Wind from calm
Wind: Calm
Temperature: 19°F , -7°C
Dew Point: 9°F , -13°C
Humidity: 63%
Barometer: 30.19 inHg , 1022.4 hPa
Clouds: Partly cloudy
Visibility: 10 miles , 16 km
Cloud details: Partly cloudy 3400 ft
2021/01/23 22:47 KSAW 232247Z 00000KT 10SM SCT034 M07/M13 A3019